sensor_id;sensor_type;location;lat;lon;timestamp;P1;durP1;ratioP1;P2;durP2;ratioP2
16115;SDS011;8162;47.104;15.432;2023-05-29T00:00:35;8.93;;;5.63;;
16115;SDS011;8162;47.104;15.432;2023-05-29T00:03:37;8.20;;;6.03;;
16115;SDS011;8162;47.104;15.432;2023-05-29T00:06:38;10.00;;;6.53;;
16115;SDS011;8162;47.104;15.432;2023-05-29T00:09:39;7.30;;;6.00;;
16115;SDS011;8162;47.104;15.432;2023-05-29T00:12:39;9.77;;;5.80;;
16115;SDS011;8162;47.104;15.432;2023-05-29T00:15:40;8.07;;;5.17;;
16115;SDS011;8162;47.104;15.432;2023-05-29T00:18:41;6.27;;;5.40;;
16115;SDS011;8162;47.104;15.432;2023-05-29T00:21:45;10.03;;;6.40;;
16115;SDS011;8162;47.104;15.432;2023-05-29T00:24:47;7.47;;;5.70;;
16115;SDS011;8162;47.104;15.432;2023-05-29T00:27:48;7.43;;;5.57;;
16115;SDS011;8162;47.104;15.432;2023-05-29T00:30:49;7.87;;;6.03;;
16115;SDS011;8162;47.104;15.432;2023-05-29T00:33:50;9.87;;;5.67;;
16115;SDS011;8162;47.104;15.432;2023-05-29T00:36:51;5.90;;;5.30;;
16115;SDS011;8162;47.104;15.432;2023-05-29T00:39:52;8.87;;;5.87;;
16115;SDS011;8162;47.104;15.432;2023-05-29T00:42:52;9.43;;;5.90;;
16115;SDS011;8162;47.104;15.432;2023-05-29T00:45:53;8.27;;;6.00;;
16115;SDS011;8162;47.104;15.432;2023-05-29T00:48:54;8.70;;;5.63;;
16115;SDS011;8162;47.104;15.432;2023-05-29T00:51:55;7.77;;;6.10;;
16115;SDS011;8162;47.104;15.432;2023-05-29T00:54:56;11.30;;;5.97;;
16115;SDS011;8162;47.104;15.432;2023-05-29T00:58:00;6.83;;;5.97;;
16115;SDS011;8162;47.104;15.432;2023-05-29T01:01:01;8.10;;;6.40;;
16115;SDS011;8162;47.104;15.432;2023-05-29T01:04:03;9.70;;;5.60;;
16115;SDS011;8162;47.104;15.432;2023-05-29T01:07:08;7.37;;;5.93;;
16115;SDS011;8162;47.104;15.432;2023-05-29T01:10:10;10.83;;;5.70;;
16115;SDS011;8162;47.104;15.432;2023-05-29T01:13:12;7.73;;;5.70;;
16115;SDS011;8162;47.104;15.432;2023-05-29T01:16:20;9.27;;;5.70;;
16115;SDS011;8162;47.104;15.432;2023-05-29T01:28:45;9.23;;;7.60;;
16115;SDS011;8162;47.104;15.432;2023-05-29T01:31:48;8.30;;;6.73;;
16115;SDS011;8162;47.104;15.432;2023-05-29T01:34:49;8.63;;;5.80;;
16115;SDS011;8162;47.104;15.432;2023-05-29T01:37:50;8.93;;;6.30;;
16115;SDS011;8162;47.104;15.432;2023-05-29T01:40:51;7.33;;;6.17;;
16115;SDS011;8162;47.104;15.432;2023-05-29T01:43:52;7.77;;;5.67;;
16115;SDS011;8162;47.104;15.432;2023-05-29T01:46:54;7.83;;;6.90;;
16115;SDS011;8162;47.104;15.432;2023-05-29T01:49:55;10.60;;;6.60;;
16115;SDS011;8162;47.104;15.432;2023-05-29T01:52:56;9.00;;;6.27;;
16115;SDS011;8162;47.104;15.432;2023-05-29T01:55:58;8.50;;;5.97;;
16115;SDS011;8162;47.104;15.432;2023-05-29T01:58:59;6.83;;;5.47;;
16115;SDS011;8162;47.104;15.432;2023-05-29T02:02:05;7.23;;;5.37;;
16115;SDS011;8162;47.104;15.432;2023-05-29T02:05:07;9.70;;;6.20;;
16115;SDS011;8162;47.104;15.432;2023-05-29T02:08:08;9.57;;;6.17;;
16115;SDS011;8162;47.104;15.432;2023-05-29T02:11:09;8.67;;;5.97;;
16115;SDS011;8162;47.104;15.432;2023-05-29T02:14:10;8.87;;;6.77;;
16115;SDS011;8162;47.104;15.432;2023-05-29T02:17:11;10.93;;;6.27;;
16115;SDS011;8162;47.104;15.432;2023-05-29T02:20:14;9.87;;;6.10;;
16115;SDS011;8162;47.104;15.432;2023-05-29T02:23:16;8.73;;;5.90;;
16115;SDS011;8162;47.104;15.432;2023-05-29T02:26:19;8.33;;;6.00;;
16115;SDS011;8162;47.104;15.432;2023-05-29T02:29:20;7.30;;;5.37;;
16115;SDS011;8162;47.104;15.432;2023-05-29T02:32:21;6.83;;;5.60;;
16115;SDS011;8162;47.104;15.432;2023-05-29T02:35:22;7.60;;;6.37;;
16115;SDS011;8162;47.104;15.432;2023-05-29T02:38:24;8.57;;;6.03;;
16115;SDS011;8162;47.104;15.432;2023-05-29T02:41:25;8.20;;;6.07;;
16115;SDS011;8162;47.104;15.432;2023-05-29T02:44:26;10.77;;;5.97;;
16115;SDS011;8162;47.104;15.432;2023-05-29T02:47:27;8.20;;;6.00;;
16115;SDS011;8162;47.104;15.432;2023-05-29T02:50:28;9.93;;;6.00;;
16115;SDS011;8162;47.104;15.432;2023-05-29T02:53:29;8.67;;;6.30;;
16115;SDS011;8162;47.104;15.432;2023-05-29T02:56:30;8.57;;;6.20;;
16115;SDS011;8162;47.104;15.432;2023-05-29T02:59:31;7.07;;;5.97;;
16115;SDS011;8162;47.104;15.432;2023-05-29T03:02:32;7.97;;;5.40;;
16115;SDS011;8162;47.104;15.432;2023-05-29T03:05:34;7.00;;;6.07;;
16115;SDS011;8162;47.104;15.432;2023-05-29T03:08:35;7.07;;;5.80;;
16115;SDS011;8162;47.104;15.432;2023-05-29T03:11:40;9.13;;;6.80;;
16115;SDS011;8162;47.104;15.432;2023-05-29T03:14:41;7.63;;;5.67;;
16115;SDS011;8162;47.104;15.432;2023-05-29T03:17:42;7.23;;;5.80;;
16115;SDS011;8162;47.104;15.432;2023-05-29T03:20:43;8.97;;;6.40;;
16115;SDS011;8162;47.104;15.432;2023-05-29T03:23:44;9.67;;;6.77;;
16115;SDS011;8162;47.104;15.432;2023-05-29T03:26:45;9.23;;;6.83;;
16115;SDS011;8162;47.104;15.432;2023-05-29T03:29:46;8.57;;;6.80;;
16115;SDS011;8162;47.104;15.432;2023-05-29T03:32:47;7.53;;;6.57;;
16115;SDS011;8162;47.104;15.432;2023-05-29T03:35:48;8.57;;;6.63;;
16115;SDS011;8162;47.104;15.432;2023-05-29T03:38:49;6.87;;;6.00;;
16115;SDS011;8162;47.104;15.432;2023-05-29T03:41:50;9.37;;;6.03;;
16115;SDS011;8162;47.104;15.432;2023-05-29T03:44:51;9.90;;;6.30;;
16115;SDS011;8162;47.104;15.432;2023-05-29T03:47:52;6.70;;;5.97;;
16115;SDS011;8162;47.104;15.432;2023-05-29T03:50:53;6.63;;;5.77;;
16115;SDS011;8162;47.104;15.432;2023-05-29T03:53:54;6.43;;;5.73;;
16115;SDS011;8162;47.104;15.432;2023-05-29T03:56:55;8.47;;;6.80;;
16115;SDS011;8162;47.104;15.432;2023-05-29T03:59:56;10.23;;;6.57;;
16115;SDS011;8162;47.104;15.432;2023-05-29T04:02:57;8.53;;;6.57;;
16115;SDS011;8162;47.104;15.432;2023-05-29T04:05:58;8.63;;;5.80;;
16115;SDS011;8162;47.104;15.432;2023-05-29T04:08:59;7.87;;;6.13;;
16115;SDS011;8162;47.104;15.432;2023-05-29T04:12:00;8.43;;;6.13;;
16115;SDS011;8162;47.104;15.432;2023-05-29T04:15:02;7.50;;;6.40;;
16115;SDS011;8162;47.104;15.432;2023-05-29T04:18:03;8.10;;;6.80;;
16115;SDS011;8162;47.104;15.432;2023-05-29T04:21:04;7.53;;;6.23;;
16115;SDS011;8162;47.104;15.432;2023-05-29T04:24:06;8.07;;;6.30;;
16115;SDS011;8162;47.104;15.432;2023-05-29T04:27:07;7.93;;;6.10;;
16115;SDS011;8162;47.104;15.432;2023-05-29T04:30:11;8.50;;;6.70;;
16115;SDS011;8162;47.104;15.432;2023-05-29T04:33:12;8.67;;;6.47;;
16115;SDS011;8162;47.104;15.432;2023-05-29T04:36:14;8.53;;;6.50;;
16115;SDS011;8162;47.104;15.432;2023-05-29T04:39:16;8.03;;;6.90;;
16115;SDS011;8162;47.104;15.432;2023-05-29T04:42:17;8.70;;;6.77;;
16115;SDS011;8162;47.104;15.432;2023-05-29T04:45:21;9.83;;;7.20;;
16115;SDS011;8162;47.104;15.432;2023-05-29T04:48:22;8.53;;;7.27;;
16115;SDS011;8162;47.104;15.432;2023-05-29T04:51:25;9.30;;;7.33;;
16115;SDS011;8162;47.104;15.432;2023-05-29T04:54:28;7.83;;;6.50;;
16115;SDS011;8162;47.104;15.432;2023-05-29T04:57:29;9.40;;;6.97;;
16115;SDS011;8162;47.104;15.432;2023-05-29T05:00:31;9.53;;;7.47;;
16115;SDS011;8162;47.104;15.432;2023-05-29T05:03:32;11.03;;;7.57;;
16115;SDS011;8162;47.104;15.432;2023-05-29T05:06:33;9.77;;;7.10;;
16115;SDS011;8162;47.104;15.432;2023-05-29T05:09:34;9.33;;;6.90;;
16115;SDS011;8162;47.104;15.432;2023-05-29T05:12:35;9.60;;;7.13;;
16115;SDS011;8162;47.104;15.432;2023-05-29T05:15:36;11.43;;;6.70;;
16115;SDS011;8162;47.104;15.432;2023-05-29T05:18:38;9.43;;;7.27;;
16115;SDS011;8162;47.104;15.432;2023-05-29T05:21:39;8.97;;;7.53;;
16115;SDS011;8162;47.104;15.432;2023-05-29T05:24:40;9.03;;;6.90;;
16115;SDS011;8162;47.104;15.432;2023-05-29T05:27:41;9.60;;;6.93;;
16115;SDS011;8162;47.104;15.432;2023-05-29T05:30:42;7.13;;;6.40;;
16115;SDS011;8162;47.104;15.432;2023-05-29T05:33:43;9.33;;;7.10;;
16115;SDS011;8162;47.104;15.432;2023-05-29T05:36:44;10.03;;;7.30;;
16115;SDS011;8162;47.104;15.432;2023-05-29T05:39:45;9.80;;;7.23;;
16115;SDS011;8162;47.104;15.432;2023-05-29T05:42:48;10.33;;;7.23;;
16115;SDS011;8162;47.104;15.432;2023-05-29T05:45:49;7.17;;;6.43;;
16115;SDS011;8162;47.104;15.432;2023-05-29T05:48:50;9.73;;;7.13;;
16115;SDS011;8162;47.104;15.432;2023-05-29T05:51:51;8.97;;;7.13;;
16115;SDS011;8162;47.104;15.432;2023-05-29T05:54:52;10.67;;;7.30;;
16115;SDS011;8162;47.104;15.432;2023-05-29T05:57:54;7.57;;;6.77;;
16115;SDS011;8162;47.104;15.432;2023-05-29T06:00:56;11.07;;;8.23;;
16115;SDS011;8162;47.104;15.432;2023-05-29T06:03:57;7.83;;;6.90;;
16115;SDS011;8162;47.104;15.432;2023-05-29T06:06:58;10.30;;;7.90;;
16115;SDS011;8162;47.104;15.432;2023-05-29T06:10:00;8.07;;;7.07;;
16115;SDS011;8162;47.104;15.432;2023-05-29T06:13:01;8.33;;;7.20;;
16115;SDS011;8162;47.104;15.432;2023-05-29T06:16:02;11.67;;;7.80;;
16115;SDS011;8162;47.104;15.432;2023-05-29T06:19:02;8.80;;;6.60;;
16115;SDS011;8162;47.104;15.432;2023-05-29T06:22:05;9.13;;;7.30;;
16115;SDS011;8162;47.104;15.432;2023-05-29T06:25:05;8.50;;;6.77;;
16115;SDS011;8162;47.104;15.432;2023-05-29T06:28:06;9.97;;;7.30;;
16115;SDS011;8162;47.104;15.432;2023-05-29T06:31:07;8.23;;;6.60;;
16115;SDS011;8162;47.104;15.432;2023-05-29T06:34:08;7.37;;;6.50;;
16115;SDS011;8162;47.104;15.432;2023-05-29T06:37:08;9.27;;;6.80;;
16115;SDS011;8162;47.104;15.432;2023-05-29T06:40:09;9.50;;;6.93;;
16115;SDS011;8162;47.104;15.432;2023-05-29T06:43:11;10.27;;;7.20;;
16115;SDS011;8162;47.104;15.432;2023-05-29T06:46:12;8.57;;;6.67;;
16115;SDS011;8162;47.104;15.432;2023-05-29T06:49:12;10.83;;;7.17;;
16115;SDS011;8162;47.104;15.432;2023-05-29T06:52:13;8.97;;;8.07;;
16115;SDS011;8162;47.104;15.432;2023-05-29T06:55:13;8.73;;;6.97;;
16115;SDS011;8162;47.104;15.432;2023-05-29T06:58:14;8.33;;;6.63;;
16115;SDS011;8162;47.104;15.432;2023-05-29T07:01:15;10.03;;;7.57;;
16115;SDS011;8162;47.104;15.432;2023-05-29T07:04:18;8.10;;;7.30;;
16115;SDS011;8162;47.104;15.432;2023-05-29T07:07:19;8.07;;;6.37;;
16115;SDS011;8162;47.104;15.432;2023-05-29T07:10:20;7.30;;;6.37;;
16115;SDS011;8162;47.104;15.432;2023-05-29T07:13:20;9.60;;;6.93;;
16115;SDS011;8162;47.104;15.432;2023-05-29T07:16:21;7.33;;;6.63;;
16115;SDS011;8162;47.104;15.432;2023-05-29T07:19:22;7.90;;;6.73;;
16115;SDS011;8162;47.104;15.432;2023-05-29T07:22:22;6.97;;;6.23;;
16115;SDS011;8162;47.104;15.432;2023-05-29T07:25:23;7.90;;;6.27;;
16115;SDS011;8162;47.104;15.432;2023-05-29T07:28:24;9.73;;;7.03;;
16115;SDS011;8162;47.104;15.432;2023-05-29T07:31:25;7.37;;;6.37;;
16115;SDS011;8162;47.104;15.432;2023-05-29T07:34:25;7.33;;;6.53;;
16115;SDS011;8162;47.104;15.432;2023-05-29T07:37:26;9.10;;;6.17;;
16115;SDS011;8162;47.104;15.432;2023-05-29T07:40:27;8.30;;;5.77;;
16115;SDS011;8162;47.104;15.432;2023-05-29T07:43:27;6.77;;;5.43;;
16115;SDS011;8162;47.104;15.432;2023-05-29T07:46:28;8.07;;;5.23;;
16115;SDS011;8162;47.104;15.432;2023-05-29T07:49:29;5.83;;;5.10;;
16115;SDS011;8162;47.104;15.432;2023-05-29T07:52:30;6.30;;;4.90;;
16115;SDS011;8162;47.104;15.432;2023-05-29T07:55:30;7.37;;;4.83;;
16115;SDS011;8162;47.104;15.432;2023-05-29T07:58:31;6.00;;;5.40;;
16115;SDS011;8162;47.104;15.432;2023-05-29T08:01:32;8.37;;;5.87;;
16115;SDS011;8162;47.104;15.432;2023-05-29T08:04:33;7.87;;;5.70;;
16115;SDS011;8162;47.104;15.432;2023-05-29T08:07:36;6.17;;;5.47;;
16115;SDS011;8162;47.104;15.432;2023-05-29T08:10:37;7.30;;;5.63;;
16115;SDS011;8162;47.104;15.432;2023-05-29T08:13:37;6.17;;;5.50;;
16115;SDS011;8162;47.104;15.432;2023-05-29T08:16:38;6.87;;;5.63;;
16115;SDS011;8162;47.104;15.432;2023-05-29T08:19:39;5.40;;;4.90;;
16115;SDS011;8162;47.104;15.432;2023-05-29T08:22:39;6.27;;;5.27;;
16115;SDS011;8162;47.104;15.432;2023-05-29T08:25:40;7.87;;;5.87;;
16115;SDS011;8162;47.104;15.432;2023-05-29T08:28:41;9.80;;;5.50;;
16115;SDS011;8162;47.104;15.432;2023-05-29T08:31:42;5.83;;;5.17;;
16115;SDS011;8162;47.104;15.432;2023-05-29T08:34:43;6.80;;;5.50;;
16115;SDS011;8162;47.104;15.432;2023-05-29T08:37:45;7.80;;;5.73;;
16115;SDS011;8162;47.104;15.432;2023-05-29T08:40:46;7.30;;;5.63;;
16115;SDS011;8162;47.104;15.432;2023-05-29T08:43:48;6.00;;;5.33;;
16115;SDS011;8162;47.104;15.432;2023-05-29T08:46:54;8.53;;;5.50;;
16115;SDS011;8162;47.104;15.432;2023-05-29T08:49:56;7.23;;;5.33;;
16115;SDS011;8162;47.104;15.432;2023-05-29T08:52:58;6.10;;;5.47;;
16115;SDS011;8162;47.104;15.432;2023-05-29T08:55:59;7.10;;;5.70;;
16115;SDS011;8162;47.104;15.432;2023-05-29T08:59:01;10.80;;;5.43;;
16115;SDS011;8162;47.104;15.432;2023-05-29T09:02:02;7.30;;;5.43;;
16115;SDS011;8162;47.104;15.432;2023-05-29T09:05:04;6.90;;;6.00;;
16115;SDS011;8162;47.104;15.432;2023-05-29T09:08:07;11.23;;;5.90;;
16115;SDS011;8162;47.104;15.432;2023-05-29T09:11:09;6.97;;;5.60;;
16115;SDS011;8162;47.104;15.432;2023-05-29T09:17:40;6.30;;;5.00;;
16115;SDS011;8162;47.104;15.432;2023-05-29T09:20:41;8.10;;;5.47;;
16115;SDS011;8162;47.104;15.432;2023-05-29T09:23:42;7.97;;;5.47;;
16115;SDS011;8162;47.104;15.432;2023-05-29T09:26:50;7.30;;;5.57;;
16115;SDS011;8162;47.104;15.432;2023-05-29T09:29:51;6.93;;;5.03;;
16115;SDS011;8162;47.104;15.432;2023-05-29T09:32:53;9.30;;;6.00;;
16115;SDS011;8162;47.104;15.432;2023-05-29T09:35:53;8.83;;;6.00;;
16115;SDS011;8162;47.104;15.432;2023-05-29T09:38:54;9.43;;;5.77;;
16115;SDS011;8162;47.104;15.432;2023-05-29T09:41:55;6.83;;;5.50;;
16115;SDS011;8162;47.104;15.432;2023-05-29T09:44:55;6.70;;;5.23;;
16115;SDS011;8162;47.104;15.432;2023-05-29T09:47:57;7.00;;;5.80;;
16115;SDS011;8162;47.104;15.432;2023-05-29T09:51:00;8.50;;;6.07;;
16115;SDS011;8162;47.104;15.432;2023-05-29T09:54:12;8.93;;;5.73;;
16115;SDS011;8162;47.104;15.432;2023-05-29T09:57:16;8.43;;;6.00;;
16115;SDS011;8162;47.104;15.432;2023-05-29T10:00:17;12.17;;;6.07;;
16115;SDS011;8162;47.104;15.432;2023-05-29T10:03:19;9.10;;;6.10;;
16115;SDS011;8162;47.104;15.432;2023-05-29T10:06:21;9.50;;;5.80;;
16115;SDS011;8162;47.104;15.432;2023-05-29T10:09:22;6.47;;;5.37;;
16115;SDS011;8162;47.104;15.432;2023-05-29T10:12:26;5.30;;;4.80;;
16115;SDS011;8162;47.104;15.432;2023-05-29T10:15:29;7.50;;;5.47;;
16115;SDS011;8162;47.104;15.432;2023-05-29T10:18:39;7.60;;;5.70;;
16115;SDS011;8162;47.104;15.432;2023-05-29T10:21:43;8.17;;;5.60;;
16115;SDS011;8162;47.104;15.432;2023-05-29T10:24:44;6.90;;;5.50;;
16115;SDS011;8162;47.104;15.432;2023-05-29T10:27:48;7.40;;;5.93;;
16115;SDS011;8162;47.104;15.432;2023-05-29T10:40:30;7.10;;;6.40;;
16115;SDS011;8162;47.104;15.432;2023-05-29T10:43:31;8.23;;;6.37;;
16115;SDS011;8162;47.104;15.432;2023-05-29T10:49:48;6.70;;;6.00;;
16115;SDS011;8162;47.104;15.432;2023-05-29T10:52:51;8.57;;;6.10;;
16115;SDS011;8162;47.104;15.432;2023-05-29T10:55:52;6.40;;;5.80;;
16115;SDS011;8162;47.104;15.432;2023-05-29T10:58:54;6.23;;;5.20;;
16115;SDS011;8162;47.104;15.432;2023-05-29T11:01:55;11.27;;;6.10;;
16115;SDS011;8162;47.104;15.432;2023-05-29T11:05:03;8.00;;;6.57;;
16115;SDS011;8162;47.104;15.432;2023-05-29T11:08:06;7.83;;;6.40;;
16115;SDS011;8162;47.104;15.432;2023-05-29T11:11:06;8.90;;;6.03;;
16115;SDS011;8162;47.104;15.432;2023-05-29T11:14:11;10.17;;;6.10;;
16115;SDS011;8162;47.104;15.432;2023-05-29T11:17:30;7.87;;;6.60;;
16115;SDS011;8162;47.104;15.432;2023-05-29T11:20:56;9.73;;;6.00;;
16115;SDS011;8162;47.104;15.432;2023-05-29T11:24:01;8.53;;;5.87;;
16115;SDS011;8162;47.104;15.432;2023-05-29T11:27:04;7.97;;;6.50;;
16115;SDS011;8162;47.104;15.432;2023-05-29T11:30:08;7.87;;;5.90;;
16115;SDS011;8162;47.104;15.432;2023-05-29T11:33:09;8.53;;;6.30;;
16115;SDS011;8162;47.104;15.432;2023-05-29T11:36:21;7.53;;;5.90;;
16115;SDS011;8162;47.104;15.432;2023-05-29T11:39:22;6.43;;;5.47;;
16115;SDS011;8162;47.104;15.432;2023-05-29T11:42:23;9.60;;;6.07;;
16115;SDS011;8162;47.104;15.432;2023-05-29T11:45:23;6.73;;;6.03;;
16115;SDS011;8162;47.104;15.432;2023-05-29T11:48:25;9.43;;;7.00;;
16115;SDS011;8162;47.104;15.432;2023-05-29T11:51:26;7.97;;;5.87;;
16115;SDS011;8162;47.104;15.432;2023-05-29T11:54:27;6.77;;;5.80;;
16115;SDS011;8162;47.104;15.432;2023-05-29T11:57:28;6.47;;;5.77;;
16115;SDS011;8162;47.104;15.432;2023-05-29T12:00:30;6.13;;;5.53;;
16115;SDS011;8162;47.104;15.432;2023-05-29T12:03:42;7.10;;;5.77;;
16115;SDS011;8162;47.104;15.432;2023-05-29T12:06:43;6.70;;;6.07;;
16115;SDS011;8162;47.104;15.432;2023-05-29T12:09:44;7.63;;;6.13;;
16115;SDS011;8162;47.104;15.432;2023-05-29T12:12:55;7.07;;;6.23;;
16115;SDS011;8162;47.104;15.432;2023-05-29T12:15:58;8.13;;;6.53;;
16115;SDS011;8162;47.104;15.432;2023-05-29T12:19:03;7.30;;;5.97;;
16115;SDS011;8162;47.104;15.432;2023-05-29T12:22:04;6.57;;;5.70;;
16115;SDS011;8162;47.104;15.432;2023-05-29T12:25:21;6.93;;;6.20;;
16115;SDS011;8162;47.104;15.432;2023-05-29T12:28:21;6.83;;;5.60;;
16115;SDS011;8162;47.104;15.432;2023-05-29T12:31:28;7.63;;;5.93;;
16115;SDS011;8162;47.104;15.432;2023-05-29T12:34:36;6.63;;;5.97;;
16115;SDS011;8162;47.104;15.432;2023-05-29T12:37:41;6.03;;;5.43;;
16115;SDS011;8162;47.104;15.432;2023-05-29T12:40:47;6.33;;;5.73;;
16115;SDS011;8162;47.104;15.432;2023-05-29T12:43:49;7.03;;;5.40;;
16115;SDS011;8162;47.104;15.432;2023-05-29T12:46:55;7.23;;;6.53;;
16115;SDS011;8162;47.104;15.432;2023-05-29T12:49:57;6.60;;;6.00;;
16115;SDS011;8162;47.104;15.432;2023-05-29T12:53:07;6.53;;;5.83;;
16115;SDS011;8162;47.104;15.432;2023-05-29T12:56:09;5.43;;;5.03;;
16115;SDS011;8162;47.104;15.432;2023-05-29T12:59:10;6.87;;;5.93;;
16115;SDS011;8162;47.104;15.432;2023-05-29T13:02:11;6.30;;;5.68;;
16115;SDS011;8162;47.104;15.432;2023-05-29T13:05:13;6.38;;;5.80;;
16115;SDS011;8162;47.104;15.432;2023-05-29T13:08:13;6.95;;;5.80;;
16115;SDS011;8162;47.104;15.432;2023-05-29T13:11:14;6.45;;;5.22;;
16115;SDS011;8162;47.104;15.432;2023-05-29T13:14:15;6.75;;;5.80;;
16115;SDS011;8162;47.104;15.432;2023-05-29T13:17:16;5.90;;;5.40;;
16115;SDS011;8162;47.104;15.432;2023-05-29T13:20:17;15.13;;;4.93;;
16115;SDS011;8162;47.104;15.432;2023-05-29T13:23:18;5.85;;;5.35;;
16115;SDS011;8162;47.104;15.432;2023-05-29T13:26:20;6.35;;;5.75;;
16115;SDS011;8162;47.104;15.432;2023-05-29T13:29:22;5.93;;;5.43;;
16115;SDS011;8162;47.104;15.432;2023-05-29T13:32:22;7.77;;;5.97;;
16115;SDS011;8162;47.104;15.432;2023-05-29T13:35:23;6.40;;;5.80;;
16115;SDS011;8162;47.104;15.432;2023-05-29T13:38:23;6.00;;;5.50;;
16115;SDS011;8162;47.104;15.432;2023-05-29T13:41:24;6.70;;;6.07;;
16115;SDS011;8162;47.104;15.432;2023-05-29T13:44:25;6.10;;;4.93;;
16115;SDS011;8162;47.104;15.432;2023-05-29T13:47:26;6.07;;;5.40;;
16115;SDS011;8162;47.104;15.432;2023-05-29T13:50:28;5.73;;;5.23;;
16115;SDS011;8162;47.104;15.432;2023-05-29T13:53:29;6.20;;;5.67;;
16115;SDS011;8162;47.104;15.432;2023-05-29T13:56:30;6.77;;;6.13;;
16115;SDS011;8162;47.104;15.432;2023-05-29T13:59:30;7.30;;;5.70;;
16115;SDS011;8162;47.104;15.432;2023-05-29T14:02:32;6.03;;;5.53;;
16115;SDS011;8162;47.104;15.432;2023-05-29T14:05:32;6.27;;;5.77;;
16115;SDS011;8162;47.104;15.432;2023-05-29T14:08:33;7.00;;;6.40;;
16115;SDS011;8162;47.104;15.432;2023-05-29T14:11:34;6.83;;;6.23;;
16115;SDS011;8162;47.104;15.432;2023-05-29T14:14:36;6.27;;;5.67;;
16115;SDS011;8162;47.104;15.432;2023-05-29T14:17:38;6.13;;;5.50;;
16115;SDS011;8162;47.104;15.432;2023-05-29T14:20:39;6.87;;;5.90;;
16115;SDS011;8162;47.104;15.432;2023-05-29T14:23:39;5.70;;;5.20;;
16115;SDS011;8162;47.104;15.432;2023-05-29T14:26:40;6.47;;;5.43;;
16115;SDS011;8162;47.104;15.432;2023-05-29T14:29:43;5.97;;;5.37;;
16115;SDS011;8162;47.104;15.432;2023-05-29T14:32:45;9.07;;;6.40;;
16115;SDS011;8162;47.104;15.432;2023-05-29T14:35:46;12.80;;;6.10;;
16115;SDS011;8162;47.104;15.432;2023-05-29T14:38:47;6.70;;;5.27;;
16115;SDS011;8162;47.104;15.432;2023-05-29T14:41:49;7.90;;;5.80;;
16115;SDS011;8162;47.104;15.432;2023-05-29T14:44:50;9.77;;;5.97;;
16115;SDS011;8162;47.104;15.432;2023-05-29T14:47:50;7.03;;;6.00;;
16115;SDS011;8162;47.104;15.432;2023-05-29T14:50:51;6.40;;;5.70;;
16115;SDS011;8162;47.104;15.432;2023-05-29T14:53:52;6.60;;;5.93;;
16115;SDS011;8162;47.104;15.432;2023-05-29T14:56:52;7.60;;;6.40;;
16115;SDS011;8162;47.104;15.432;2023-05-29T14:59:53;7.27;;;6.07;;
16115;SDS011;8162;47.104;15.432;2023-05-29T15:02:54;6.03;;;5.43;;
16115;SDS011;8162;47.104;15.432;2023-05-29T15:05:57;7.40;;;6.07;;
16115;SDS011;8162;47.104;15.432;2023-05-29T15:08:58;8.30;;;5.93;;
16115;SDS011;8162;47.104;15.432;2023-05-29T15:12:00;7.53;;;5.73;;
16115;SDS011;8162;47.104;15.432;2023-05-29T15:15:02;6.80;;;5.80;;
16115;SDS011;8162;47.104;15.432;2023-05-29T15:18:03;6.37;;;5.27;;
16115;SDS011;8162;47.104;15.432;2023-05-29T15:21:04;7.77;;;5.97;;
16115;SDS011;8162;47.104;15.432;2023-05-29T15:24:05;8.87;;;6.40;;
16115;SDS011;8162;47.104;15.432;2023-05-29T15:27:06;5.90;;;5.27;;
16115;SDS011;8162;47.104;15.432;2023-05-29T15:33:14;5.90;;;5.40;;
16115;SDS011;8162;47.104;15.432;2023-05-29T15:36:15;7.80;;;5.50;;
16115;SDS011;8162;47.104;15.432;2023-05-29T15:39:16;7.80;;;5.17;;
16115;SDS011;8162;47.104;15.432;2023-05-29T15:42:17;6.03;;;5.43;;
16115;SDS011;8162;47.104;15.432;2023-05-29T15:45:17;5.60;;;5.10;;
16115;SDS011;8162;47.104;15.432;2023-05-29T15:48:19;6.33;;;5.17;;
16115;SDS011;8162;47.104;15.432;2023-05-29T15:51:20;5.93;;;5.33;;
16115;SDS011;8162;47.104;15.432;2023-05-29T15:54:21;5.70;;;5.10;;
16115;SDS011;8162;47.104;15.432;2023-05-29T15:57:21;5.87;;;5.27;;
16115;SDS011;8162;47.104;15.432;2023-05-29T16:00:22;7.33;;;5.47;;
16115;SDS011;8162;47.104;15.432;2023-05-29T16:03:23;5.63;;;5.13;;
16115;SDS011;8162;47.104;15.432;2023-05-29T16:06:23;5.77;;;5.27;;
16115;SDS011;8162;47.104;15.432;2023-05-29T16:09:24;6.13;;;5.53;;
16115;SDS011;8162;47.104;15.432;2023-05-29T16:12:27;5.43;;;4.93;;
16115;SDS011;8162;47.104;15.432;2023-05-29T16:15:29;5.97;;;5.27;;
16115;SDS011;8162;47.104;15.432;2023-05-29T16:18:29;6.47;;;5.23;;
16115;SDS011;8162;47.104;15.432;2023-05-29T16:21:30;6.23;;;5.20;;
16115;SDS011;8162;47.104;15.432;2023-05-29T16:24:32;6.23;;;5.23;;
16115;SDS011;8162;47.104;15.432;2023-05-29T16:27:33;5.77;;;5.17;;
16115;SDS011;8162;47.104;15.432;2023-05-29T16:30:34;5.23;;;4.73;;
16115;SDS011;8162;47.104;15.432;2023-05-29T16:33:34;5.73;;;5.13;;
16115;SDS011;8162;47.104;15.432;2023-05-29T16:36:35;6.27;;;5.07;;
16115;SDS011;8162;47.104;15.432;2023-05-29T16:39:36;5.83;;;4.60;;
16115;SDS011;8162;47.104;15.432;2023-05-29T16:42:37;6.83;;;4.90;;
16115;SDS011;8162;47.104;15.432;2023-05-29T16:45:38;7.87;;;5.43;;
16115;SDS011;8162;47.104;15.432;2023-05-29T16:48:39;6.33;;;5.40;;
16115;SDS011;8162;47.104;15.432;2023-05-29T16:51:40;5.10;;;4.60;;
16115;SDS011;8162;47.104;15.432;2023-05-29T16:54:41;4.80;;;4.40;;
16115;SDS011;8162;47.104;15.432;2023-05-29T16:57:42;6.30;;;5.30;;
16115;SDS011;8162;47.104;15.432;2023-05-29T17:00:43;6.03;;;4.73;;
16115;SDS011;8162;47.104;15.432;2023-05-29T17:03:44;7.07;;;5.07;;
16115;SDS011;8162;47.104;15.432;2023-05-29T17:06:44;7.20;;;5.53;;
16115;SDS011;8162;47.104;15.432;2023-05-29T17:09:45;4.97;;;4.23;;
16115;SDS011;8162;47.104;15.432;2023-05-29T17:12:46;5.10;;;4.60;;
16115;SDS011;8162;47.104;15.432;2023-05-29T17:15:47;6.13;;;5.27;;
16115;SDS011;8162;47.104;15.432;2023-05-29T17:18:47;5.90;;;5.30;;
16115;SDS011;8162;47.104;15.432;2023-05-29T17:21:48;5.90;;;5.30;;
16115;SDS011;8162;47.104;15.432;2023-05-29T17:24:49;7.17;;;5.50;;
16115;SDS011;8162;47.104;15.432;2023-05-29T17:27:49;7.57;;;4.73;;
16115;SDS011;8162;47.104;15.432;2023-05-29T17:30:50;5.17;;;4.63;;
16115;SDS011;8162;47.104;15.432;2023-05-29T17:33:51;5.63;;;4.53;;
16115;SDS011;8162;47.104;15.432;2023-05-29T17:36:51;4.70;;;4.20;;
16115;SDS011;8162;47.104;15.432;2023-05-29T17:39:53;7.77;;;5.37;;
16115;SDS011;8162;47.104;15.432;2023-05-29T17:42:53;7.87;;;5.97;;
16115;SDS011;8162;47.104;15.432;2023-05-29T17:45:54;11.97;;;6.80;;
16115;SDS011;8162;47.104;15.432;2023-05-29T17:48:56;6.93;;;5.53;;
16115;SDS011;8162;47.104;15.432;2023-05-29T17:51:57;7.87;;;5.67;;
16115;SDS011;8162;47.104;15.432;2023-05-29T17:54:58;7.67;;;5.37;;
16115;SDS011;8162;47.104;15.432;2023-05-29T17:57:59;6.40;;;5.00;;
16115;SDS011;8162;47.104;15.432;2023-05-29T18:01:00;6.17;;;4.93;;
16115;SDS011;8162;47.104;15.432;2023-05-29T18:04:01;7.00;;;5.07;;
16115;SDS011;8162;47.104;15.432;2023-05-29T18:07:02;5.70;;;4.80;;
16115;SDS011;8162;47.104;15.432;2023-05-29T18:10:05;5.93;;;4.70;;
16115;SDS011;8162;47.104;15.432;2023-05-29T18:13:06;6.07;;;5.10;;
16115;SDS011;8162;47.104;15.432;2023-05-29T18:16:07;6.20;;;5.03;;
16115;SDS011;8162;47.104;15.432;2023-05-29T18:19:09;7.37;;;5.30;;
16115;SDS011;8162;47.104;15.432;2023-05-29T18:22:10;4.93;;;4.53;;
16115;SDS011;8162;47.104;15.432;2023-05-29T18:25:11;6.27;;;5.50;;
16115;SDS011;8162;47.104;15.432;2023-05-29T18:28:14;5.67;;;4.87;;
16115;SDS011;8162;47.104;15.432;2023-05-29T18:31:15;5.63;;;5.03;;
16115;SDS011;8162;47.104;15.432;2023-05-29T18:34:18;6.83;;;5.37;;
16115;SDS011;8162;47.104;15.432;2023-05-29T18:37:19;6.00;;;5.37;;
16115;SDS011;8162;47.104;15.432;2023-05-29T18:40:19;5.70;;;5.10;;